Startpagina
METAR-TAF:

METAR-TAF

Vliegvelden :

Talkeetna, Alaska, Verenigde Staten

breedte: 62-19-14N, lengte: 150-05-37W, hoogte: 109 m

Actueel weer

Dit bericht is 1 uur en het 9 minuten geleden gemaakt, om 01:53 UTC
Wind 3 kt uit het noorden
Temperatuur -4°C
Vochtigheid 80%
Druk 993 hPa
Zicht: 16.1 km
Gebroken wolken op 10000 ft
Gebroken wolken op 12000 ft

METAR: PATK 120153Z 01003KT 10SM BKN100 BKN120 M04/M07 A2933 RMK AO2 SLP941 T10391067 $

Tijdstip: 18:02 (03:02 UTC)

Verwachting

Dit bericht is 3 uur en het 22 minuten geleden gemaakt, om 23:40 UTC
Verwachting geldig van 12 om 00 UTC tot 12 om 24 UTC
Wind 5 kt uit het noordnoordoosten
Zicht: 10 km
Gebroken wolken op 25000 ft

TAF: PATK 112340Z 1200/1224 02005KT P6SM BKN250

Waarnemingen en weersverwachtingen van meer dan 4000 vliegvelden (METAR en TAF).

De beschikbare stations zijn de gele en rode punten op de kaart.

Ga met uw muis naar het station om de naam te zien.

Klik dan om waarnemingen en weersverwachtingen te zien.

kaart wijzigen: klik op de groene knoppen met een zwart kruis om in te zoomen, op de groene knop met een streepje om uit te zoomen of op de groene pijlen voor aangrenzende kaarten.


METAR-TAF: